createdAt,value
2022-09-25T00:01:21.076Z,16.23
2022-09-25T00:03:49.547Z,15.00
2022-09-25T00:06:20.006Z,17.75
2022-09-25T00:08:48.088Z,16.33
2022-09-25T00:11:21.283Z,11.95
2022-09-25T00:13:48.875Z,15.52
2022-09-25T00:16:22.812Z,12.80
2022-09-25T00:19:09.283Z,14.65
2022-09-25T00:21:37.427Z,15.93
2022-09-25T00:24:10.961Z,13.95
2022-09-25T00:29:10.763Z,12.25
2022-09-25T00:31:38.892Z,11.77
2022-09-25T00:34:06.562Z,16.40
2022-09-25T00:36:35.526Z,16.92
2022-09-25T00:39:03.552Z,11.48
2022-09-25T00:41:32.128Z,13.88
2022-09-25T00:44:01.729Z,16.67
2022-09-25T00:46:40.102Z,14.52
2022-09-25T00:49:14.621Z,21.27
2022-09-25T00:51:57.710Z,10.90
2022-09-25T00:54:30.340Z,11.65
2022-09-25T00:57:01.178Z,13.15
2022-09-25T00:59:34.502Z,11.98
2022-09-25T01:02:02.899Z,16.38
2022-09-25T01:04:34.724Z,14.73
2022-09-25T01:07:03.080Z,11.57
2022-09-25T01:09:31.192Z,12.32
2022-09-25T01:11:58.780Z,15.73
2022-09-25T01:14:26.959Z,12.68
2022-09-25T01:17:14.692Z,15.32
2022-09-25T01:19:45.804Z,13.63
2022-09-25T01:22:47.197Z,16.17
2022-09-25T01:25:55.026Z,12.55
2022-09-25T01:28:31.668Z,16.05
2022-09-25T01:31:04.595Z,11.77
2022-09-25T01:33:37.193Z,14.67
2022-09-25T01:36:29.856Z,12.18
2022-09-25T01:39:08.141Z,13.55
2022-09-25T01:41:48.000Z,14.05
2022-09-25T01:44:23.528Z,13.13
2022-09-25T01:46:53.725Z,12.32
2022-09-25T01:49:35.469Z,14.30
2022-09-25T01:52:10.320Z,14.30
2022-09-25T01:54:43.944Z,14.32
2022-09-25T01:57:27.160Z,12.55
2022-09-25T01:59:59.695Z,14.83
2022-09-25T02:02:33.978Z,16.92
2022-09-25T02:05:09.731Z,14.43
2022-09-25T02:07:50.939Z,14.95
2022-09-25T02:10:26.676Z,12.73
2022-09-25T02:12:58.595Z,11.45
2022-09-25T02:15:32.358Z,11.55
2022-09-25T02:20:53.983Z,16.38
2022-09-25T02:23:25.222Z,14.52
2022-09-25T02:25:52.709Z,10.88
2022-09-25T02:28:23.016Z,14.52
2022-09-25T02:30:53.885Z,12.90
2022-09-25T02:33:21.426Z,10.35
2022-09-25T02:35:50.107Z,9.77
2022-09-25T02:38:17.822Z,10.82
2022-09-25T02:40:59.026Z,10.20
2022-09-25T02:43:49.300Z,11.75
2022-09-25T02:46:39.236Z,14.77
2022-09-25T02:49:15.553Z,8.70
2022-09-25T02:52:01.852Z,10.32
2022-09-25T02:54:33.117Z,11.93
2022-09-25T02:57:09.440Z,8.90
2022-09-25T02:59:45.013Z,9.90
2022-09-25T03:02:16.276Z,10.43
2022-09-25T03:04:48.806Z,10.18
2022-09-25T03:07:18.405Z,15.07
2022-09-25T03:09:49.009Z,12.40
2022-09-25T03:12:17.176Z,15.77
2022-09-25T03:14:44.958Z,17.17
2022-09-25T03:17:13.917Z,16.55
2022-09-25T03:19:41.429Z,16.60
2022-09-25T03:22:09.018Z,17.83
2022-09-25T03:24:37.127Z,15.32
2022-09-25T03:27:04.700Z,16.48
2022-09-25T03:29:32.256Z,17.92
2022-09-25T03:31:59.805Z,18.02
2022-09-25T03:34:27.384Z,19.33
2022-09-25T03:36:55.489Z,18.00
2022-09-25T03:39:23.615Z,20.00
2022-09-25T03:41:51.608Z,21.15
2022-09-25T03:44:19.544Z,18.15
2022-09-25T03:46:47.319Z,22.50
2022-09-25T03:49:15.252Z,19.05
2022-09-25T03:51:42.867Z,19.10
2022-09-25T03:54:10.398Z,18.60
2022-09-25T03:56:38.428Z,18.73
2022-09-25T03:59:06.397Z,17.42
2022-09-25T04:01:34.775Z,21.00
2022-09-25T04:04:03.448Z,19.08
2022-09-25T04:06:31.533Z,16.80
2022-09-25T04:08:59.063Z,18.27
2022-09-25T04:11:26.686Z,18.33
2022-09-25T04:13:56.972Z,17.10
2022-09-25T04:16:24.942Z,19.27
2022-09-25T04:18:52.444Z,21.77
2022-09-25T04:21:20.464Z,22.08
2022-09-25T04:24:07.924Z,19.60
2022-09-25T04:26:36.559Z,21.30
2022-09-25T04:29:04.932Z,24.25
2022-09-25T04:31:32.706Z,20.38
2022-09-25T04:34:02.545Z,19.73
2022-09-25T04:36:30.105Z,22.83
2022-09-25T04:38:57.670Z,22.33
2022-09-25T04:41:25.742Z,25.13
2022-09-25T04:43:53.495Z,21.27
2022-09-25T04:46:22.717Z,19.88
2022-09-25T04:48:50.775Z,22.23
2022-09-25T04:51:18.903Z,23.30
2022-09-25T04:53:46.781Z,21.77
2022-09-25T04:56:16.290Z,25.63
2022-09-25T04:58:49.393Z,25.85
2022-09-25T05:01:20.188Z,24.37
2022-09-25T05:03:54.139Z,23.60
2022-09-25T05:06:23.185Z,21.02
2022-09-25T05:08:50.902Z,23.23
2022-09-25T05:11:19.337Z,24.55
2022-09-25T05:13:51.490Z,23.67
2022-09-25T05:16:19.881Z,44.42
2022-09-25T05:18:47.925Z,22.85
2022-09-25T05:21:15.442Z,63.78
2022-09-25T05:23:43.044Z,24.48
2022-09-25T05:26:11.259Z,25.40
2022-09-25T05:28:39.829Z,25.90
2022-09-25T05:31:07.828Z,25.17
2022-09-25T05:33:35.986Z,28.40
2022-09-25T05:36:06.526Z,27.05
2022-09-25T05:38:35.635Z,26.73
2022-09-25T05:41:05.070Z,28.60
2022-09-25T05:43:33.776Z,34.78
2022-09-25T05:46:01.754Z,40.92
2022-09-25T05:48:29.432Z,37.70
2022-09-25T05:50:58.642Z,40.03
2022-09-25T05:53:26.914Z,43.20
2022-09-25T05:55:58.695Z,83.25
2022-09-25T05:58:28.313Z,36.05
2022-09-25T06:00:59.461Z,52.90
2022-09-25T06:03:29.620Z,37.00
2022-09-25T06:06:01.168Z,31.63
2022-09-25T06:08:32.826Z,33.78
2022-09-25T06:11:03.081Z,32.08
2022-09-25T06:13:33.652Z,30.75
2022-09-25T06:16:01.800Z,25.92
2022-09-25T06:18:29.954Z,29.85
2022-09-25T06:21:04.979Z,28.52
2022-09-25T06:23:32.534Z,27.70
2022-09-25T06:26:02.009Z,28.88
2022-09-25T06:28:31.046Z,28.77
2022-09-25T06:31:03.268Z,28.25
2022-09-25T06:33:31.295Z,35.75
2022-09-25T06:35:58.990Z,39.78
2022-09-25T06:38:26.616Z,37.40
2022-09-25T06:40:57.334Z,38.78
2022-09-25T06:43:28.643Z,38.63
2022-09-25T06:46:02.604Z,37.33
2022-09-25T06:48:31.624Z,40.17
2022-09-25T06:51:00.952Z,38.85
2022-09-25T06:53:28.566Z,38.28
2022-09-25T06:55:58.972Z,39.90
2022-09-25T06:58:27.607Z,40.60
2022-09-25T07:00:56.739Z,37.58
2022-09-25T07:03:43.019Z,39.90
2022-09-25T07:06:18.670Z,36.45
2022-09-25T07:08:48.134Z,34.38
2022-09-25T07:11:18.987Z,35.45
2022-09-25T07:13:48.301Z,35.58
2022-09-25T07:16:18.787Z,34.45
2022-09-25T07:18:46.994Z,35.63
2022-09-25T07:21:17.660Z,33.50
2022-09-25T07:23:48.868Z,34.00
2022-09-25T07:26:24.417Z,37.65
2022-09-25T07:28:58.225Z,34.67
2022-09-25T07:31:31.791Z,33.67
2022-09-25T07:34:02.794Z,35.40
2022-09-25T07:36:30.742Z,33.67
2022-09-25T07:38:58.831Z,33.03
2022-09-25T07:41:26.745Z,34.25
2022-09-25T07:46:46.513Z,33.20
2022-09-25T07:49:14.406Z,31.40
2022-09-25T07:51:42.378Z,34.40
2022-09-25T07:54:10.057Z,34.47
2022-09-25T07:56:38.480Z,32.40
2022-09-25T07:59:06.760Z,30.10
2022-09-25T08:01:38.228Z,34.50
2022-09-25T08:04:08.769Z,29.92
2022-09-25T08:06:36.720Z,30.13
2022-09-25T08:09:09.641Z,28.98
2022-09-25T08:11:38.527Z,28.40
2022-09-25T08:14:06.244Z,31.98
2022-09-25T08:16:33.765Z,32.38
2022-09-25T08:19:01.278Z,26.50
2022-09-25T08:21:28.815Z,29.27
2022-09-25T08:23:58.095Z,33.60
2022-09-25T08:26:28.341Z,31.55
2022-09-25T08:28:56.878Z,27.73
2022-09-25T08:31:24.648Z,27.38
2022-09-25T08:33:52.231Z,23.15
2022-09-25T08:36:21.607Z,20.30
2022-09-25T08:38:49.501Z,21.92
2022-09-25T08:41:35.692Z,19.50
2022-09-25T08:44:21.326Z,18.45
2022-09-25T08:47:22.111Z,18.33
2022-09-25T08:50:16.338Z,20.05
2022-09-25T08:55:50.497Z,17.38
2022-09-25T08:58:29.179Z,14.85
2022-09-25T09:01:04.757Z,18.10
2022-09-25T09:03:36.603Z,18.05
2022-09-25T09:06:12.857Z,18.38
2022-09-25T09:08:42.961Z,16.42
2022-09-25T09:11:23.940Z,14.75
2022-09-25T09:14:04.156Z,13.98
2022-09-25T09:16:49.852Z,14.07
2022-09-25T09:19:17.869Z,13.57
2022-09-25T09:22:03.271Z,13.50
2022-09-25T09:24:55.875Z,13.45
2022-09-25T09:27:42.781Z,16.33
2022-09-25T09:30:17.455Z,14.38
2022-09-25T09:33:06.160Z,13.30
2022-09-25T09:35:45.938Z,12.15
2022-09-25T09:38:31.782Z,13.07
2022-09-25T09:41:13.767Z,13.00
2022-09-25T09:43:57.835Z,16.20
2022-09-25T09:46:38.358Z,10.98
2022-09-25T09:49:21.461Z,10.75
2022-09-25T09:52:03.955Z,15.07
2022-09-25T09:55:07.760Z,14.05
2022-09-25T09:57:45.511Z,11.65
2022-09-25T10:00:18.887Z,13.57
2022-09-25T10:05:30.930Z,14.05
2022-09-25T10:07:58.731Z,11.88
2022-09-25T10:10:39.107Z,13.75
2022-09-25T10:13:16.835Z,12.05
2022-09-25T10:16:11.593Z,13.00
2022-09-25T10:19:01.159Z,12.18
2022-09-25T10:21:42.366Z,13.60
2022-09-25T10:24:10.138Z,14.80
2022-09-25T10:26:40.516Z,13.43
2022-09-25T10:29:08.095Z,14.25
2022-09-25T10:31:40.838Z,12.65
2022-09-25T10:34:17.714Z,14.30
2022-09-25T10:36:48.935Z,13.35
2022-09-25T10:39:46.971Z,14.75
2022-09-25T10:42:41.037Z,11.27
2022-09-25T10:45:29.982Z,12.55
2022-09-25T10:48:16.379Z,13.52
2022-09-25T10:50:45.163Z,12.32
2022-09-25T10:53:30.405Z,12.13
2022-09-25T10:56:08.588Z,10.55
2022-09-25T10:58:54.936Z,14.55
2022-09-25T11:01:35.473Z,10.02
2022-09-25T11:04:25.893Z,13.80
2022-09-25T11:06:58.293Z,12.68
2022-09-25T11:09:28.515Z,17.30
2022-09-25T11:12:14.527Z,8.00
2022-09-25T11:14:57.461Z,13.30
2022-09-25T11:17:45.714Z,8.23
2022-09-25T11:20:17.833Z,10.32
2022-09-25T11:23:11.367Z,11.02
2022-09-25T11:26:07.417Z,12.13
2022-09-25T11:28:57.895Z,26.92
2022-09-25T11:31:37.506Z,18.20
2022-09-25T11:34:43.087Z,12.57
2022-09-25T11:37:54.270Z,14.32
2022-09-25T11:41:03.188Z,17.40
2022-09-25T11:43:41.450Z,16.30
2022-09-25T11:46:50.377Z,15.18
2022-09-25T11:49:24.590Z,14.35
2022-09-25T11:52:05.970Z,15.00
2022-09-25T11:55:07.613Z,16.08
2022-09-25T11:58:01.125Z,15.80
2022-09-25T12:01:06.234Z,13.55
2022-09-25T12:03:54.652Z,11.65
2022-09-25T12:06:36.784Z,17.45
2022-09-25T12:09:18.292Z,13.70
2022-09-25T12:11:52.300Z,13.77
2022-09-25T12:14:31.768Z,12.43
2022-09-25T12:17:17.939Z,13.18
2022-09-25T12:19:56.994Z,18.38
2022-09-25T12:23:01.814Z,14.55
2022-09-25T12:25:29.780Z,16.13
2022-09-25T12:28:16.503Z,19.20
2022-09-25T12:31:01.236Z,16.13
2022-09-25T12:33:34.549Z,15.95
2022-09-25T12:36:17.977Z,15.80
2022-09-25T12:38:55.492Z,16.35
2022-09-25T12:41:36.346Z,15.70
2022-09-25T12:44:12.284Z,12.48
2022-09-25T12:46:57.653Z,15.73
2022-09-25T12:49:44.904Z,15.70
2022-09-25T12:52:33.501Z,13.45
2022-09-25T12:55:13.657Z,21.35
2022-09-25T12:57:49.780Z,11.85
2022-09-25T13:00:25.971Z,12.25
2022-09-25T13:03:22.320Z,11.07
2022-09-25T13:05:59.188Z,13.35
2022-09-25T13:08:37.843Z,11.00
2022-09-25T13:11:05.403Z,10.10
2022-09-25T13:13:40.750Z,13.48
2022-09-25T13:16:08.947Z,11.68
2022-09-25T13:18:36.528Z,10.63
2022-09-25T13:21:23.879Z,10.27
2022-09-25T13:23:54.583Z,12.50
2022-09-25T13:26:27.796Z,17.63
2022-09-25T13:28:58.787Z,8.20
2022-09-25T13:31:30.955Z,11.35
2022-09-25T13:34:01.489Z,8.98
2022-09-25T13:36:34.559Z,10.15
2022-09-25T13:39:34.153Z,9.68
2022-09-25T13:42:08.186Z,10.88
2022-09-25T13:44:45.099Z,12.80
2022-09-25T13:47:24.938Z,12.00
2022-09-25T13:50:19.126Z,11.15
2022-09-25T13:52:46.765Z,9.45
2022-09-25T13:55:20.196Z,10.43
2022-09-25T14:00:27.165Z,9.45
2022-09-25T14:03:01.608Z,9.88
2022-09-25T14:05:38.389Z,10.90
2022-09-25T14:08:13.963Z,12.25
2022-09-25T14:10:50.956Z,9.30
2022-09-25T14:13:25.381Z,10.20
2022-09-25T14:15:57.111Z,11.43
2022-09-25T14:18:43.983Z,12.75
2022-09-25T14:21:15.280Z,18.00
2022-09-25T14:23:52.024Z,11.45
2022-09-25T14:26:22.749Z,12.73
2022-09-25T14:28:51.820Z,12.40
2022-09-25T14:31:31.987Z,13.20
2022-09-25T14:34:20.912Z,15.80
2022-09-25T14:37:11.291Z,14.90
2022-09-25T14:39:54.796Z,12.13
2022-09-25T14:42:27.291Z,11.88
2022-09-25T14:45:20.700Z,13.30
2022-09-25T14:47:51.484Z,16.98
2022-09-25T14:50:30.260Z,12.70
2022-09-25T14:53:02.123Z,12.50
2022-09-25T14:55:39.615Z,11.10
2022-09-25T14:58:10.062Z,11.40
2022-09-25T15:00:46.827Z,13.63
2022-09-25T15:03:19.213Z,14.07
2022-09-25T15:05:48.848Z,12.48
2022-09-25T15:08:30.789Z,11.65
2022-09-25T15:11:11.212Z,12.00
2022-09-25T15:13:39.531Z,13.77
2022-09-25T15:16:35.690Z,9.93
2022-09-25T15:19:12.467Z,11.55
2022-09-25T15:21:43.424Z,10.80
2022-09-25T15:24:16.035Z,11.48
2022-09-25T15:26:52.229Z,12.90
2022-09-25T15:29:24.291Z,13.65
2022-09-25T15:31:52.574Z,11.05
2022-09-25T15:34:23.776Z,10.73
2022-09-25T15:36:52.223Z,12.35
2022-09-25T15:39:25.306Z,23.98
2022-09-25T15:41:53.105Z,18.65
2022-09-25T15:44:26.690Z,9.27
2022-09-25T15:49:32.426Z,15.30
2022-09-25T15:52:32.549Z,8.77
2022-09-25T15:55:03.625Z,8.68
2022-09-25T15:57:32.239Z,8.57
2022-09-25T16:00:26.324Z,10.32
2022-09-25T16:03:21.602Z,11.13
2022-09-25T16:05:50.457Z,10.30
2022-09-25T16:08:24.355Z,10.93
2022-09-25T16:11:10.431Z,11.82
2022-09-25T16:13:41.656Z,13.00
2022-09-25T16:16:30.050Z,9.93
2022-09-25T16:19:00.381Z,9.88
2022-09-25T16:21:33.936Z,10.85
2022-09-25T16:24:07.397Z,12.27
2022-09-25T16:29:12.779Z,10.80
2022-09-25T16:31:43.852Z,10.00
2022-09-25T16:34:26.471Z,11.93
2022-09-25T16:36:58.272Z,10.13
2022-09-25T16:39:32.866Z,12.00
2022-09-25T16:42:42.145Z,11.05
2022-09-25T16:45:34.361Z,11.77
2022-09-25T16:48:34.940Z,11.85
2022-09-25T16:51:02.754Z,11.98
2022-09-25T16:53:30.412Z,12.88
2022-09-25T16:55:59.236Z,11.77
2022-09-25T16:58:26.746Z,14.07
2022-09-25T17:00:54.346Z,11.60
2022-09-25T17:03:22.127Z,12.55
2022-09-25T17:05:49.888Z,12.60
2022-09-25T17:08:20.628Z,13.60
2022-09-25T17:10:51.511Z,12.90
2022-09-25T17:13:26.614Z,14.43
2022-09-25T17:15:55.845Z,13.35
2022-09-25T17:18:23.550Z,13.45
2022-09-25T17:20:53.012Z,13.18
2022-09-25T17:23:22.185Z,13.40
2022-09-25T17:26:16.032Z,13.10
2022-09-25T17:28:44.515Z,12.95
2022-09-25T17:31:16.074Z,12.30
2022-09-25T17:33:43.670Z,18.75
2022-09-25T17:36:12.423Z,13.52
2022-09-25T17:38:40.089Z,15.20
2022-09-25T17:41:31.305Z,14.25
2022-09-25T17:43:59.785Z,15.40
2022-09-25T17:46:27.877Z,13.82
2022-09-25T17:48:55.504Z,17.83
2022-09-25T17:51:26.253Z,15.45
2022-09-25T17:53:56.074Z,18.52
2022-09-25T17:56:25.723Z,14.80
2022-09-25T17:58:57.395Z,13.98
2022-09-25T18:01:28.303Z,16.55
2022-09-25T18:04:00.904Z,16.48
2022-09-25T18:06:30.479Z,13.77
2022-09-25T18:08:58.993Z,13.50
2022-09-25T18:11:27.303Z,16.52
2022-09-25T18:13:57.037Z,14.00
2022-09-25T18:16:28.872Z,17.05
2022-09-25T18:19:15.749Z,16.25
2022-09-25T18:22:02.579Z,17.85
2022-09-25T18:24:30.351Z,19.23
2022-09-25T18:26:58.533Z,16.60
2022-09-25T18:29:26.978Z,17.00
2022-09-25T18:31:54.631Z,15.55
2022-09-25T18:34:22.867Z,19.48
2022-09-25T18:36:50.792Z,18.90
2022-09-25T18:39:20.439Z,16.27
2022-09-25T18:41:48.482Z,21.77
2022-09-25T18:44:17.897Z,18.15
2022-09-25T18:46:46.034Z,17.13
2022-09-25T18:49:13.736Z,18.00
2022-09-25T18:51:42.015Z,16.02
2022-09-25T18:54:13.165Z,19.83
2022-09-25T18:56:42.597Z,17.30
2022-09-25T18:59:11.028Z,16.90
2022-09-25T19:01:39.814Z,16.17
2022-09-25T19:04:08.357Z,17.95
2022-09-25T19:06:35.992Z,18.73
2022-09-25T19:09:05.143Z,16.80
2022-09-25T19:11:33.145Z,18.90
2022-09-25T19:14:04.659Z,16.48
2022-09-25T19:16:38.007Z,20.83
2022-09-25T19:21:34.125Z,19.33
2022-09-25T19:24:02.011Z,17.15
2022-09-25T19:26:31.037Z,15.50
2022-09-25T19:29:00.556Z,19.48
2022-09-25T19:31:28.856Z,18.08
2022-09-25T19:33:58.034Z,17.25
2022-09-25T19:36:30.559Z,18.40
2022-09-25T19:38:59.870Z,17.95
2022-09-25T19:41:34.368Z,19.23
2022-09-25T19:44:12.336Z,21.83
2022-09-25T19:46:46.406Z,20.95
2022-09-25T19:49:16.761Z,18.90
2022-09-25T19:51:45.100Z,19.80
2022-09-25T19:54:15.034Z,21.75
2022-09-25T19:56:46.302Z,22.00
2022-09-25T19:59:15.748Z,18.70
2022-09-25T20:01:43.734Z,21.35
2022-09-25T20:04:17.465Z,20.45
2022-09-25T20:06:47.094Z,21.48
2022-09-25T20:09:15.041Z,19.80
2022-09-25T20:11:43.496Z,20.90
2022-09-25T20:14:11.434Z,22.67
2022-09-25T20:16:39.009Z,20.50
2022-09-25T20:19:07.628Z,24.48
2022-09-25T20:21:37.920Z,23.70
2022-09-25T20:24:08.117Z,21.65
2022-09-25T20:26:36.652Z,23.98
2022-09-25T20:29:12.561Z,21.55
2022-09-25T20:31:42.893Z,21.55
2022-09-25T20:34:16.534Z,24.75
2022-09-25T20:39:15.604Z,23.58
2022-09-25T20:41:46.643Z,23.48
2022-09-25T20:44:14.897Z,23.30
2022-09-25T20:46:42.642Z,22.50
2022-09-25T20:49:11.765Z,22.65
2022-09-25T20:51:41.333Z,26.25
2022-09-25T20:54:10.255Z,24.67
2022-09-25T20:56:43.730Z,25.42
2022-09-25T20:59:12.316Z,25.98
2022-09-25T21:01:41.553Z,24.33
2022-09-25T21:04:10.388Z,121.00
2022-09-25T21:06:40.346Z,29.67
2022-09-25T21:09:20.360Z,24.40
2022-09-25T21:11:48.954Z,24.48
2022-09-25T21:14:25.454Z,25.85
2022-09-25T21:16:56.303Z,25.50
2022-09-25T21:19:24.613Z,24.90
2022-09-25T21:21:52.301Z,25.15
2022-09-25T21:24:21.369Z,26.08
2022-09-25T21:26:49.936Z,35.72
2022-09-25T21:29:18.231Z,25.08
2022-09-25T21:31:49.910Z,24.27
2022-09-25T21:34:19.139Z,25.02
2022-09-25T21:36:47.484Z,24.88
2022-09-25T21:39:15.571Z,25.92
2022-09-25T21:41:43.808Z,28.17
2022-09-25T21:44:14.153Z,25.58
2022-09-25T21:46:44.060Z,27.98
2022-09-25T21:49:17.379Z,26.48
2022-09-25T21:51:46.473Z,24.08
2022-09-25T21:54:15.746Z,25.10
2022-09-25T21:56:44.589Z,26.00
2022-09-25T21:59:13.214Z,26.58
2022-09-25T22:01:41.107Z,29.75
2022-09-25T22:04:12.890Z,27.17
2022-09-25T22:06:47.200Z,28.63
2022-09-25T22:09:21.819Z,26.08
2022-09-25T22:11:51.181Z,25.73
2022-09-25T22:14:20.730Z,25.15
2022-09-25T22:16:50.487Z,25.67
2022-09-25T22:19:23.508Z,25.08
2022-09-25T22:21:53.387Z,24.42
2022-09-25T22:24:22.709Z,24.95
2022-09-25T22:26:51.939Z,26.60
2022-09-25T22:29:20.938Z,33.63
2022-09-25T22:31:48.901Z,29.98
2022-09-25T22:34:26.488Z,29.70
2022-09-25T22:36:59.607Z,27.58
2022-09-25T22:41:57.258Z,25.60
2022-09-25T22:44:25.818Z,24.55
2022-09-25T22:46:54.033Z,22.90
2022-09-25T22:49:21.846Z,25.15
2022-09-25T22:51:49.416Z,21.92
2022-09-25T22:54:16.976Z,24.75
2022-09-25T22:56:45.096Z,22.85
2022-09-25T22:59:18.988Z,21.50
2022-09-25T23:01:52.459Z,21.10
2022-09-25T23:04:23.292Z,22.15
2022-09-25T23:06:52.084Z,25.35
2022-09-25T23:09:22.725Z,22.15
2022-09-25T23:11:50.710Z,21.65
2022-09-25T23:14:22.014Z,20.88
2022-09-25T23:16:51.890Z,21.75
2022-09-25T23:19:20.888Z,25.42
2022-09-25T23:21:51.290Z,23.88
2022-09-25T23:24:20.137Z,22.10
2022-09-25T23:26:48.748Z,21.20
2022-09-25T23:29:18.598Z,23.35
2022-09-25T23:31:47.428Z,29.00
2022-09-25T23:34:15.298Z,24.95
2022-09-25T23:36:42.967Z,27.30
2022-09-25T23:39:17.010Z,25.20
2022-09-25T23:41:44.662Z,26.20
2022-09-25T23:44:13.653Z,35.15
2022-09-25T23:46:43.145Z,29.52
2022-09-25T23:49:11.559Z,33.40
2022-09-25T23:51:39.278Z,32.17
2022-09-25T23:54:06.851Z,32.70
2022-09-25T23:56:35.811Z,35.72
2022-09-25T23:59:05.173Z,33.80
